Google Maps JavaScript API Example
Pilot Flight Report # 94899 Submitted by : AST775 on 2021-02-21
Date: 2021-02-21Aircraft: DeHavilland DHC6 Twin Otter - Wheeled
Flight No.: Not AvailableDistance (Nm): 127.74
Departure: YMRY - MoruyaDestination: YSSY - Kingsford Smith Intl
 TimeFuelWeightSpeeds  
Out (Taxi)0554Z1929 lbs10710 lbs Flight RulesVFR
Off (Takeoff)0555Z 10706 lbs89 ktsFlight Level4500
On (Landing)0648Z 10219 lbs83 ktsVSTD-62 ft/min
In (Ramp)0648Z1434 lbs10219 lbs ZFW8784 lbs
Flight0.90  -  0:53489 lbs  Pax0
Block0.90  -  0:54495 lbs  Cargo0
Departure WeatherYMRY 200553Z 25902KT 47SM FEW020 19/15 A2987
Destination WeatherYSSY 200648Z 14710KT 46SM FEW020 FEW020 25/21 A2985
Flight Commentstest PIREP for FS2020